createdAt,value
2018-10-03T00:00:57.292Z,7.13
2018-10-03T00:03:11.391Z,7.37
2018-10-03T00:05:16.834Z,7.93
2018-10-03T00:07:22.489Z,7.50
2018-10-03T00:09:31.450Z,7.83
2018-10-03T00:11:37.145Z,8.17
2018-10-03T00:13:47.563Z,7.57
2018-10-03T00:15:53.202Z,8.40
2018-10-03T00:18:00.778Z,7.87
2018-10-03T00:20:06.792Z,7.90
2018-10-03T00:22:11.702Z,8.20
2018-10-03T00:24:17.817Z,7.83
2018-10-03T00:26:22.631Z,8.27
2018-10-03T00:28:28.034Z,8.07
2018-10-03T00:30:32.504Z,7.97
2018-10-03T00:32:39.444Z,8.50
2018-10-03T00:34:45.917Z,8.77
2018-10-03T00:36:50.635Z,8.13
2018-10-03T00:38:57.361Z,8.07
2018-10-03T00:41:06.623Z,8.20
2018-10-03T00:43:12.036Z,9.10
2018-10-03T00:45:17.597Z,8.23
2018-10-03T00:47:22.855Z,9.00
2018-10-03T00:49:32.967Z,7.97
2018-10-03T00:51:39.872Z,8.80
2018-10-03T00:53:45.909Z,8.50
2018-10-03T00:55:53.341Z,8.80
2018-10-03T00:57:58.932Z,9.47
2018-10-03T01:00:05.183Z,8.83
2018-10-03T01:02:10.601Z,8.60
2018-10-03T01:04:16.762Z,8.63
2018-10-03T01:06:22.992Z,8.57
2018-10-03T01:08:27.685Z,8.70
2018-10-03T01:10:33.584Z,8.50
2018-10-03T01:12:40.136Z,8.60
2018-10-03T01:14:46.372Z,8.00
2018-10-03T01:16:51.189Z,8.37
2018-10-03T01:18:56.653Z,8.13
2018-10-03T01:21:02.070Z,8.73
2018-10-03T01:23:07.020Z,9.20
2018-10-03T01:25:12.218Z,8.40
2018-10-03T01:27:18.469Z,8.53
2018-10-03T01:29:23.937Z,9.40
2018-10-03T01:31:28.871Z,8.50
2018-10-03T01:33:34.068Z,8.20
2018-10-03T01:35:39.653Z,8.60
2018-10-03T01:37:44.579Z,8.73
2018-10-03T01:39:50.333Z,8.80
2018-10-03T01:41:56.115Z,9.13
2018-10-03T01:44:00.288Z,9.37
2018-10-03T01:46:05.308Z,9.80
2018-10-03T01:48:12.046Z,9.70
2018-10-03T01:50:17.341Z,9.37
2018-10-03T01:52:21.436Z,9.53
2018-10-03T01:54:29.490Z,8.43
2018-10-03T01:56:35.966Z,9.50
2018-10-03T01:58:40.672Z,9.70
2018-10-03T02:00:45.585Z,9.07
2018-10-03T02:02:50.523Z,9.80
2018-10-03T02:04:56.502Z,9.60
2018-10-03T02:07:02.132Z,9.83
2018-10-03T02:09:08.077Z,9.70
2018-10-03T02:11:12.862Z,10.53
2018-10-03T02:13:18.248Z,11.07
2018-10-03T02:15:26.852Z,10.43
2018-10-03T02:17:31.548Z,10.73
2018-10-03T02:19:37.390Z,10.57
2018-10-03T02:21:41.731Z,10.70
2018-10-03T02:23:47.959Z,11.10
2018-10-03T02:25:53.432Z,10.67
2018-10-03T02:27:59.193Z,10.17
2018-10-03T02:30:05.032Z,10.60
2018-10-03T02:32:10.719Z,10.33
2018-10-03T02:34:18.475Z,10.10
2018-10-03T02:36:22.626Z,10.03
2018-10-03T02:38:29.031Z,10.13
2018-10-03T02:40:33.137Z,9.47
2018-10-03T02:42:37.432Z,10.20
2018-10-03T02:44:41.601Z,9.00
2018-10-03T02:46:45.856Z,8.87
2018-10-03T02:48:52.028Z,10.20
2018-10-03T02:50:56.103Z,10.10
2018-10-03T02:53:01.528Z,9.63
2018-10-03T02:55:06.938Z,9.53
2018-10-03T02:57:12.599Z,9.40
2018-10-03T02:59:18.368Z,9.80
2018-10-03T03:01:24.164Z,9.27
2018-10-03T03:03:28.703Z,9.40
2018-10-03T03:05:33.664Z,9.83
2018-10-03T03:07:39.733Z,9.50
2018-10-03T03:09:50.579Z,10.07
2018-10-03T03:11:55.272Z,9.60
2018-10-03T03:14:00.413Z,9.47
2018-10-03T03:16:05.186Z,10.13
2018-10-03T03:18:17.670Z,9.80
2018-10-03T03:20:21.934Z,10.00
2018-10-03T03:22:27.473Z,9.37
2018-10-03T03:24:32.200Z,9.93
2018-10-03T03:26:37.678Z,11.30
2018-10-03T03:28:44.816Z,9.70
2018-10-03T03:30:49.631Z,11.20
2018-10-03T03:32:55.233Z,10.97
2018-10-03T03:34:59.880Z,10.57
2018-10-03T03:37:04.792Z,9.93
2018-10-03T03:39:10.042Z,10.27
2018-10-03T03:41:15.714Z,10.17
2018-10-03T03:43:21.819Z,10.13
2018-10-03T03:45:27.624Z,10.37
2018-10-03T03:47:33.639Z,10.23
2018-10-03T03:49:46.154Z,9.90
2018-10-03T03:51:53.546Z,10.27
2018-10-03T03:53:58.683Z,11.00
2018-10-03T03:56:10.610Z,10.57
2018-10-03T03:58:19.508Z,10.57
2018-10-03T04:00:24.506Z,9.97
2018-10-03T04:02:32.661Z,10.80
2018-10-03T04:04:38.770Z,11.00
2018-10-03T04:06:47.363Z,10.97
2018-10-03T04:08:53.662Z,10.40
2018-10-03T04:11:04.222Z,11.43
2018-10-03T04:13:08.903Z,10.80
2018-10-03T04:15:18.392Z,11.33
2018-10-03T04:17:23.896Z,12.17
2018-10-03T04:19:37.695Z,11.30
2018-10-03T04:21:44.724Z,10.87
2018-10-03T04:23:50.289Z,11.23
2018-10-03T04:25:55.721Z,11.33
2018-10-03T04:28:00.380Z,11.40
2018-10-03T04:30:06.299Z,11.47
2018-10-03T04:32:12.733Z,12.20
2018-10-03T04:34:18.499Z,10.73
2018-10-03T04:36:24.386Z,11.97
2018-10-03T04:38:29.769Z,11.03
2018-10-03T04:40:35.345Z,11.53
2018-10-03T04:42:40.850Z,11.73
2018-10-03T04:44:46.933Z,11.87
2018-10-03T04:46:51.758Z,11.50
2018-10-03T04:48:57.115Z,10.87
2018-10-03T04:51:03.532Z,11.60
2018-10-03T04:53:09.115Z,11.00
2018-10-03T04:55:14.039Z,11.43
2018-10-03T04:57:19.231Z,11.33
2018-10-03T04:59:24.675Z,10.80
2018-10-03T05:01:28.831Z,10.47
2018-10-03T05:03:33.570Z,11.33
2018-10-03T05:05:38.080Z,10.53
2018-10-03T05:07:42.795Z,10.73
2018-10-03T05:09:47.733Z,10.17
2018-10-03T05:11:53.269Z,10.17
2018-10-03T05:13:58.581Z,10.40
2018-10-03T05:16:03.493Z,9.77
2018-10-03T05:21:08.613Z,9.73
2018-10-03T05:23:14.142Z,10.67
2018-10-03T05:25:19.456Z,10.03
2018-10-03T05:27:24.860Z,9.93
2018-10-03T05:29:29.569Z,10.07
2018-10-03T05:31:34.339Z,9.90
2018-10-03T05:33:40.810Z,9.57
2018-10-03T05:35:47.641Z,9.50
2018-10-03T05:37:56.626Z,9.47
2018-10-03T05:40:07.111Z,9.20
2018-10-03T05:42:12.080Z,9.70
2018-10-03T05:44:16.170Z,9.03
2018-10-03T05:46:21.323Z,9.73
2018-10-03T05:48:34.301Z,10.43
2018-10-03T05:50:40.126Z,9.50
2018-10-03T05:52:45.568Z,9.50
2018-10-03T05:54:50.998Z,9.37
2018-10-03T05:56:55.144Z,9.43
2018-10-03T05:59:03.574Z,9.70
2018-10-03T06:01:11.840Z,9.97
2018-10-03T06:03:21.366Z,10.03
2018-10-03T06:05:25.985Z,9.87
2018-10-03T06:07:32.344Z,9.93
2018-10-03T06:09:38.486Z,10.03
2018-10-03T06:11:46.310Z,9.50
2018-10-03T06:14:01.054Z,9.20
2018-10-03T06:16:12.962Z,9.13
2018-10-03T06:18:19.259Z,8.87
2018-10-03T06:20:38.448Z,8.93
2018-10-03T06:22:51.041Z,8.93
2018-10-03T06:24:55.955Z,8.60
2018-10-03T06:27:04.946Z,8.33
2018-10-03T06:29:13.379Z,8.27
2018-10-03T06:31:18.839Z,7.93
2018-10-03T06:33:25.585Z,8.67
2018-10-03T06:35:31.076Z,7.83
2018-10-03T06:37:38.710Z,7.37
2018-10-03T06:39:44.844Z,7.90
2018-10-03T06:41:53.093Z,7.47
2018-10-03T06:43:59.837Z,7.60
2018-10-03T06:46:05.460Z,7.80
2018-10-03T06:48:13.752Z,7.97
2018-10-03T06:50:19.467Z,7.70
2018-10-03T06:52:30.429Z,7.80
2018-10-03T06:54:37.038Z,7.03
2018-10-03T06:56:55.214Z,7.47
2018-10-03T06:59:04.384Z,7.70
2018-10-03T07:01:21.995Z,7.70
2018-10-03T07:03:30.697Z,7.57
2018-10-03T07:05:44.952Z,7.43
2018-10-03T07:07:56.400Z,7.90
2018-10-03T07:10:02.771Z,7.57
2018-10-03T07:16:36.806Z,7.07
2018-10-03T07:18:43.206Z,6.93
2018-10-03T07:20:49.479Z,7.47
2018-10-03T07:22:56.405Z,7.23
2018-10-03T07:25:02.191Z,7.63
2018-10-03T07:27:13.989Z,6.40
2018-10-03T07:29:18.801Z,7.13
2018-10-03T07:31:23.489Z,6.70
2018-10-03T07:33:29.387Z,6.40
2018-10-03T07:35:34.786Z,6.40
2018-10-03T07:37:41.412Z,6.13
2018-10-03T07:39:51.720Z,6.23
2018-10-03T07:41:58.504Z,5.60
2018-10-03T07:44:08.386Z,6.30
2018-10-03T07:46:15.630Z,5.47
2018-10-03T07:48:25.432Z,5.77
2018-10-03T07:50:33.180Z,5.30
2018-10-03T07:52:40.268Z,5.40
2018-10-03T07:54:45.785Z,5.40
2018-10-03T07:56:54.200Z,4.77
2018-10-03T07:59:02.571Z,5.33
2018-10-03T08:01:07.648Z,5.13
2018-10-03T08:03:17.100Z,4.67
2018-10-03T08:05:54.849Z,5.00
2018-10-03T08:08:02.504Z,4.07
2018-10-03T08:10:11.052Z,5.53
2018-10-03T08:12:18.873Z,5.33
2018-10-03T08:14:25.555Z,5.20
2018-10-03T08:16:32.298Z,5.30
2018-10-03T08:18:41.076Z,4.73
2018-10-03T08:20:45.701Z,5.43
2018-10-03T08:22:52.405Z,4.97
2018-10-03T08:27:08.565Z,5.07
2018-10-03T08:29:18.314Z,4.73
2018-10-03T08:31:30.361Z,4.73
2018-10-03T08:35:51.406Z,5.57
2018-10-03T08:37:59.774Z,5.73
2018-10-03T08:40:15.412Z,5.60
2018-10-03T08:42:26.037Z,5.23
2018-10-03T08:44:38.813Z,5.77
2018-10-03T08:46:49.507Z,5.60
2018-10-03T08:48:58.121Z,5.10
2018-10-03T08:51:06.036Z,4.93
2018-10-03T08:53:14.253Z,6.50
2018-10-03T08:55:20.694Z,4.97
2018-10-03T08:57:25.609Z,5.57
2018-10-03T08:59:44.027Z,5.23
2018-10-03T09:01:51.632Z,5.43
2018-10-03T09:03:59.735Z,5.83
2018-10-03T09:06:12.561Z,5.73
2018-10-03T09:08:18.335Z,5.87
2018-10-03T09:10:25.967Z,5.67
2018-10-03T09:12:47.486Z,5.47
2018-10-03T09:14:55.256Z,4.80
2018-10-03T09:17:05.236Z,5.33
2018-10-03T09:19:11.326Z,5.50
2018-10-03T09:21:17.781Z,5.43
2018-10-03T09:23:24.086Z,5.10
2018-10-03T09:25:31.215Z,5.33
2018-10-03T09:27:43.901Z,5.17
2018-10-03T09:33:00.194Z,6.00
2018-10-03T09:35:08.277Z,5.23
2018-10-03T09:37:17.772Z,5.20
2018-10-03T09:39:25.795Z,5.63
2018-10-03T09:41:32.001Z,5.37
2018-10-03T09:43:38.521Z,5.13
2018-10-03T09:45:54.011Z,5.63
2018-10-03T09:48:01.957Z,5.50
2018-10-03T09:50:08.376Z,5.60
2018-10-03T09:52:14.794Z,5.03
2018-10-03T09:54:21.519Z,5.10
2018-10-03T09:56:29.018Z,5.17
2018-10-03T09:58:35.693Z,5.23
2018-10-03T10:00:47.374Z,4.80
2018-10-03T10:03:03.780Z,4.60
2018-10-03T10:07:38.240Z,5.00
2018-10-03T10:09:46.652Z,4.93
2018-10-03T10:11:53.319Z,5.93
2018-10-03T10:14:01.371Z,4.77
2018-10-03T10:16:07.940Z,4.30
2018-10-03T10:18:14.703Z,4.97
2018-10-03T10:20:22.666Z,4.87
2018-10-03T10:22:29.338Z,4.53
2018-10-03T10:24:39.648Z,4.70
2018-10-03T10:26:45.389Z,4.73
2018-10-03T10:28:55.075Z,5.13
2018-10-03T10:31:03.486Z,5.13
2018-10-03T10:33:12.065Z,4.87
2018-10-03T10:35:20.128Z,4.63
2018-10-03T10:37:25.681Z,4.23
2018-10-03T10:39:38.641Z,4.43
2018-10-03T10:41:49.409Z,4.80
2018-10-03T10:44:00.462Z,4.93
2018-10-03T10:46:10.641Z,4.50
2018-10-03T10:48:21.844Z,4.50
2018-10-03T10:50:26.374Z,4.63
2018-10-03T10:52:38.936Z,4.67
2018-10-03T10:54:46.674Z,4.70
2018-10-03T10:56:53.346Z,4.60
2018-10-03T10:59:10.141Z,4.87
2018-10-03T11:01:17.522Z,4.17
2018-10-03T11:03:23.357Z,4.57
2018-10-03T11:05:31.574Z,4.00
2018-10-03T11:07:40.313Z,4.30
2018-10-03T11:09:49.894Z,4.37
2018-10-03T11:12:03.299Z,4.53
2018-10-03T11:14:10.939Z,3.77
2018-10-03T11:16:22.466Z,4.80
2018-10-03T11:18:33.014Z,3.83
2018-10-03T11:20:49.379Z,4.83
2018-10-03T11:22:59.131Z,4.03
2018-10-03T11:25:08.489Z,4.20
2018-10-03T11:27:16.851Z,4.00
2018-10-03T11:29:33.543Z,4.27
2018-10-03T11:31:45.458Z,3.60
2018-10-03T11:34:02.463Z,4.30
2018-10-03T11:36:13.445Z,4.40
2018-10-03T11:38:21.745Z,4.30
2018-10-03T11:40:31.589Z,4.03
2018-10-03T11:42:41.239Z,4.10
2018-10-03T11:44:52.577Z,4.10
2018-10-03T11:47:05.275Z,5.13
2018-10-03T11:49:14.099Z,4.63
2018-10-03T11:51:22.145Z,4.27
2018-10-03T11:55:51.207Z,3.73
2018-10-03T11:58:16.501Z,3.63
2018-10-03T12:00:26.506Z,4.00
2018-10-03T12:02:35.897Z,3.90
2018-10-03T12:04:48.466Z,4.40
2018-10-03T12:06:55.995Z,3.80
2018-10-03T12:09:04.990Z,4.27
2018-10-03T12:11:12.926Z,3.87
2018-10-03T12:13:22.764Z,3.87
2018-10-03T12:15:39.239Z,4.23
2018-10-03T12:17:46.679Z,3.90
2018-10-03T12:19:59.847Z,4.10
2018-10-03T12:22:04.921Z,3.83
2018-10-03T12:24:15.721Z,4.30
2018-10-03T12:26:21.539Z,3.70
2018-10-03T12:28:30.013Z,4.20
2018-10-03T12:30:43.005Z,3.90
2018-10-03T12:32:49.672Z,4.37
2018-10-03T12:34:55.401Z,4.47
2018-10-03T12:37:00.599Z,4.40
2018-10-03T12:39:16.894Z,4.37
2018-10-03T12:41:28.235Z,4.07
2018-10-03T12:43:41.049Z,4.00
2018-10-03T12:45:47.330Z,4.23
2018-10-03T12:47:59.237Z,4.47
2018-10-03T12:50:05.358Z,4.27
2018-10-03T12:52:12.574Z,4.73
2018-10-03T12:54:19.471Z,4.80
2018-10-03T12:56:26.929Z,4.27
2018-10-03T12:58:32.983Z,4.37
2018-10-03T13:00:42.124Z,4.90
2018-10-03T13:02:52.208Z,4.40
2018-10-03T13:05:02.687Z,5.13
2018-10-03T13:07:09.701Z,3.87
2018-10-03T13:09:20.096Z,4.73
2018-10-03T13:11:28.350Z,5.10
2018-10-03T13:13:36.196Z,4.43
2018-10-03T13:15:46.013Z,4.00
2018-10-03T13:18:00.631Z,4.20
2018-10-03T13:20:08.369Z,4.57
2018-10-03T13:22:17.270Z,5.07
2018-10-03T13:26:40.440Z,4.53
2018-10-03T13:28:47.514Z,4.73
2018-10-03T13:30:53.303Z,4.70
2018-10-03T13:33:01.255Z,4.77
2018-10-03T13:35:10.866Z,4.57
2018-10-03T13:37:19.195Z,4.33
2018-10-03T13:39:26.606Z,5.10
2018-10-03T13:41:38.621Z,4.30
2018-10-03T13:43:43.714Z,4.00
2018-10-03T13:45:50.933Z,4.90
2018-10-03T13:48:01.155Z,4.93
2018-10-03T13:50:09.125Z,4.27
2018-10-03T13:52:18.337Z,3.97
2018-10-03T13:57:08.161Z,4.20
2018-10-03T13:59:17.168Z,4.43
2018-10-03T14:01:26.312Z,4.33
2018-10-03T14:03:32.115Z,4.53
2018-10-03T14:05:43.577Z,4.20
2018-10-03T14:07:49.710Z,3.67
2018-10-03T14:10:00.138Z,3.83
2018-10-03T14:12:09.946Z,3.90
2018-10-03T14:14:16.290Z,3.57
2018-10-03T14:16:23.180Z,4.13
2018-10-03T14:18:32.683Z,3.60
2018-10-03T14:20:38.938Z,3.93
2018-10-03T14:22:49.141Z,3.67
2018-10-03T14:25:01.008Z,3.53
2018-10-03T14:27:06.326Z,3.80
2018-10-03T14:29:11.422Z,3.27
2018-10-03T14:31:19.068Z,4.57
2018-10-03T14:33:27.908Z,3.70
2018-10-03T14:35:34.404Z,3.87
2018-10-03T14:37:43.473Z,3.80
2018-10-03T14:39:56.775Z,4.40
2018-10-03T14:42:04.542Z,4.23
2018-10-03T14:44:17.023Z,3.80
2018-10-03T14:46:22.106Z,4.03
2018-10-03T14:48:29.547Z,3.87
2018-10-03T14:50:37.406Z,3.87
2018-10-03T14:52:48.213Z,4.13
2018-10-03T14:54:57.304Z,4.30
2018-10-03T14:57:05.238Z,4.13
2018-10-03T14:59:12.219Z,4.37
2018-10-03T15:01:17.837Z,4.33
2018-10-03T15:03:30.182Z,3.60
2018-10-03T15:05:37.693Z,3.87
2018-10-03T15:07:43.237Z,4.20
2018-10-03T15:09:52.608Z,4.37
2018-10-03T15:12:00.854Z,4.27
2018-10-03T15:14:09.836Z,4.07
2018-10-03T15:16:19.744Z,3.70
2018-10-03T15:18:38.256Z,3.87
2018-10-03T15:20:47.394Z,4.20
2018-10-03T15:22:59.744Z,4.10
2018-10-03T15:25:15.571Z,3.90
2018-10-03T15:27:20.306Z,3.77
2018-10-03T15:29:32.489Z,4.47
2018-10-03T15:31:40.687Z,4.23
2018-10-03T15:33:45.646Z,5.20
2018-10-03T15:35:51.962Z,4.70
2018-10-03T15:37:59.921Z,3.77
2018-10-03T15:40:09.368Z,4.20
2018-10-03T15:42:25.946Z,4.53
2018-10-03T15:44:33.742Z,4.10
2018-10-03T15:46:43.741Z,4.43
2018-10-03T15:48:53.062Z,4.43
2018-10-03T15:50:59.784Z,4.60
2018-10-03T15:53:05.201Z,4.70
2018-10-03T15:55:11.263Z,4.00
2018-10-03T15:57:18.684Z,3.93
2018-10-03T15:59:29.661Z,4.43
2018-10-03T16:01:37.174Z,4.37
2018-10-03T16:03:43.401Z,3.97
2018-10-03T16:05:49.774Z,4.33
2018-10-03T16:08:01.601Z,4.07
2018-10-03T16:10:07.893Z,4.60
2018-10-03T16:12:14.627Z,3.77
2018-10-03T16:14:22.930Z,4.80
2018-10-03T16:16:46.341Z,4.60
2018-10-03T16:18:54.956Z,3.97
2018-10-03T16:21:10.534Z,4.47
2018-10-03T16:23:19.429Z,4.40
2018-10-03T16:25:29.968Z,4.47
2018-10-03T16:27:44.890Z,4.20
2018-10-03T16:29:52.156Z,4.37
2018-10-03T16:32:01.167Z,4.40
2018-10-03T16:34:14.960Z,3.87
2018-10-03T16:36:22.597Z,4.70
2018-10-03T16:38:31.274Z,4.17
2018-10-03T16:40:43.026Z,4.50
2018-10-03T16:42:50.488Z,4.43
2018-10-03T16:44:56.601Z,5.30
2018-10-03T16:47:10.680Z,4.57
2018-10-03T16:49:20.473Z,4.80
2018-10-03T16:51:31.278Z,4.80
2018-10-03T16:53:38.757Z,4.50
2018-10-03T16:55:47.679Z,4.03
2018-10-03T16:58:05.124Z,4.80
2018-10-03T17:00:16.614Z,4.37
2018-10-03T17:02:43.246Z,4.23
2018-10-03T17:04:51.136Z,4.97
2018-10-03T17:07:05.183Z,4.27
2018-10-03T17:09:16.622Z,4.90
2018-10-03T17:11:30.405Z,5.13
2018-10-03T17:13:47.777Z,4.60
2018-10-03T17:15:58.480Z,6.13
2018-10-03T17:18:11.641Z,5.67
2018-10-03T17:20:17.546Z,5.30
2018-10-03T17:22:32.977Z,5.50
2018-10-03T17:24:40.612Z,5.40
2018-10-03T17:26:51.381Z,5.07
2018-10-03T17:29:02.073Z,5.20
2018-10-03T17:31:08.854Z,4.67
2018-10-03T17:33:18.051Z,4.43
2018-10-03T17:35:27.343Z,5.33
2018-10-03T17:37:40.491Z,4.43
2018-10-03T17:39:56.702Z,5.30
2018-10-03T17:42:09.756Z,4.30
2018-10-03T17:44:33.450Z,5.30
2018-10-03T17:46:46.966Z,4.37
2018-10-03T17:48:57.966Z,4.67
2018-10-03T17:51:09.303Z,4.47
2018-10-03T17:53:25.530Z,4.87
2018-10-03T17:55:34.692Z,4.97
2018-10-03T17:57:44.131Z,4.80
2018-10-03T17:59:52.150Z,5.20
2018-10-03T18:02:01.908Z,5.40
2018-10-03T18:04:12.091Z,5.90
2018-10-03T18:06:22.268Z,5.90
2018-10-03T18:08:33.755Z,5.27
2018-10-03T18:10:43.266Z,5.43
2018-10-03T18:13:07.381Z,4.83
2018-10-03T18:15:17.387Z,4.80
2018-10-03T18:17:25.503Z,5.80
2018-10-03T18:19:34.134Z,5.63
2018-10-03T18:21:41.424Z,5.03
2018-10-03T18:23:52.459Z,5.33
2018-10-03T18:26:03.157Z,5.87
2018-10-03T18:28:11.962Z,4.87
2018-10-03T18:30:18.747Z,5.00
2018-10-03T18:32:24.904Z,5.77
2018-10-03T18:34:33.153Z,5.67
2018-10-03T18:36:41.013Z,5.60
2018-10-03T18:38:49.127Z,5.23
2018-10-03T18:40:54.893Z,5.70
2018-10-03T18:43:07.218Z,5.03
2018-10-03T18:45:18.929Z,6.33
2018-10-03T18:49:40.242Z,5.63
2018-10-03T18:54:19.165Z,6.60
2018-10-03T18:56:32.823Z,5.97
2018-10-03T18:58:44.765Z,5.73
2018-10-03T19:00:54.052Z,6.07
2018-10-03T19:03:01.534Z,5.77
2018-10-03T19:05:09.924Z,5.90
2018-10-03T19:07:20.608Z,6.17
2018-10-03T19:09:36.005Z,5.90
2018-10-03T19:13:54.038Z,5.93
2018-10-03T19:15:58.874Z,6.83
2018-10-03T19:18:13.752Z,6.77
2018-10-03T19:20:22.332Z,6.50
2018-10-03T19:22:46.325Z,6.47
2018-10-03T19:25:01.050Z,7.60
2018-10-03T19:27:08.120Z,6.70
2018-10-03T19:29:14.925Z,7.63
2018-10-03T19:31:34.384Z,7.50
2018-10-03T19:33:45.805Z,7.13
2018-10-03T19:35:55.113Z,7.50
2018-10-03T19:38:06.374Z,7.30
2018-10-03T19:40:12.408Z,6.80
2018-10-03T19:42:22.094Z,6.77
2018-10-03T19:44:30.438Z,6.60
2018-10-03T19:46:39.325Z,7.03
2018-10-03T19:48:48.354Z,6.53
2018-10-03T19:51:03.783Z,6.60
2018-10-03T19:53:12.613Z,6.33
2018-10-03T19:55:19.207Z,6.50
2018-10-03T19:57:36.255Z,5.80
2018-10-03T19:59:43.993Z,6.57
2018-10-03T20:02:05.438Z,6.27
2018-10-03T20:04:15.717Z,7.07
2018-10-03T20:06:24.526Z,6.60
2018-10-03T20:08:33.819Z,5.47
2018-10-03T20:10:42.389Z,6.03
2018-10-03T20:12:48.868Z,6.27
2018-10-03T20:14:59.509Z,5.93
2018-10-03T20:17:09.736Z,5.90
2018-10-03T20:19:18.637Z,5.40
2018-10-03T20:21:37.228Z,5.80
2018-10-03T20:23:48.558Z,5.80
2018-10-03T20:25:56.399Z,6.00
2018-10-03T20:28:04.581Z,6.20
2018-10-03T20:30:14.229Z,5.67
2018-10-03T20:32:19.274Z,6.07
2018-10-03T20:34:30.782Z,5.50
2018-10-03T20:36:36.427Z,6.30
2018-10-03T20:38:46.104Z,6.03
2018-10-03T20:40:57.193Z,6.73
2018-10-03T20:43:13.311Z,6.77
2018-10-03T20:45:24.514Z,6.20
2018-10-03T20:47:34.079Z,5.60
2018-10-03T20:49:48.630Z,6.60
2018-10-03T20:51:58.780Z,6.67
2018-10-03T20:56:18.875Z,6.63
2018-10-03T20:58:33.961Z,6.60
2018-10-03T21:00:50.586Z,6.57
2018-10-03T21:02:59.396Z,6.70
2018-10-03T21:05:05.479Z,7.83
2018-10-03T21:07:13.565Z,6.90
2018-10-03T21:09:23.786Z,7.43
2018-10-03T21:11:33.820Z,6.97
2018-10-03T21:13:44.196Z,6.83
2018-10-03T21:15:52.547Z,6.80
2018-10-03T21:18:00.964Z,7.77
2018-10-03T21:20:08.690Z,7.67
2018-10-03T21:22:15.095Z,6.10
2018-10-03T21:24:21.364Z,6.00
2018-10-03T21:26:26.656Z,6.03
2018-10-03T21:28:43.628Z,5.97
2018-10-03T21:30:55.431Z,5.80
2018-10-03T21:33:07.751Z,5.53
2018-10-03T21:35:17.707Z,5.60
2018-10-03T21:37:26.053Z,6.00
2018-10-03T21:39:31.328Z,6.20
2018-10-03T21:43:54.286Z,5.93
2018-10-03T21:45:59.596Z,5.53
2018-10-03T21:48:05.058Z,6.43
2018-10-03T21:50:33.737Z,6.27
2018-10-03T21:52:46.864Z,6.33
2018-10-03T21:54:53.408Z,6.47
2018-10-03T21:57:00.315Z,5.53
2018-10-03T21:59:08.511Z,5.27
2018-10-03T22:01:18.687Z,5.77
2018-10-03T22:03:27.396Z,6.13
2018-10-03T22:05:36.022Z,6.43
2018-10-03T22:07:41.415Z,6.47
2018-10-03T22:09:50.054Z,5.83
2018-10-03T22:11:56.036Z,5.87
2018-10-03T22:14:06.704Z,5.50
2018-10-03T22:16:12.717Z,6.27
2018-10-03T22:18:16.768Z,6.10
2018-10-03T22:20:25.318Z,5.40
2018-10-03T22:22:34.846Z,5.23
2018-10-03T22:24:42.787Z,5.33
2018-10-03T22:26:52.005Z,5.93
2018-10-03T22:29:06.753Z,5.97
2018-10-03T22:31:12.152Z,5.90
2018-10-03T22:33:20.192Z,5.60
2018-10-03T22:35:35.509Z,4.97
2018-10-03T22:37:43.539Z,5.67
2018-10-03T22:39:50.038Z,5.40
2018-10-03T22:41:55.480Z,5.33
2018-10-03T22:44:02.298Z,5.53
2018-10-03T22:48:55.182Z,5.37
2018-10-03T22:51:11.531Z,6.20
2018-10-03T22:53:19.202Z,6.00
2018-10-03T22:55:38.734Z,5.80
2018-10-03T22:57:46.480Z,5.40
2018-10-03T23:00:00.310Z,5.57
2018-10-03T23:02:09.953Z,5.90
2018-10-03T23:04:22.600Z,6.07
2018-10-03T23:06:38.997Z,5.57
2018-10-03T23:08:48.776Z,5.40
2018-10-03T23:10:57.746Z,5.90
2018-10-03T23:13:07.408Z,5.83
2018-10-03T23:15:18.307Z,5.73
2018-10-03T23:17:28.578Z,6.50
2018-10-03T23:19:39.255Z,5.57
2018-10-03T23:22:10.072Z,5.43
2018-10-03T23:24:18.124Z,5.23
2018-10-03T23:26:38.110Z,6.00
2018-10-03T23:31:10.818Z,6.07
2018-10-03T23:33:21.316Z,5.40
2018-10-03T23:35:43.646Z,5.77
2018-10-03T23:37:53.596Z,5.23
2018-10-03T23:40:04.095Z,5.37
2018-10-03T23:42:17.013Z,5.87
2018-10-03T23:44:24.747Z,4.90
2018-10-03T23:46:37.316Z,5.50
2018-10-03T23:48:51.845Z,4.63
2018-10-03T23:51:02.339Z,5.07
2018-10-03T23:53:12.055Z,5.17
2018-10-03T23:55:23.008Z,6.27
2018-10-03T23:57:37.583Z,5.57
2018-10-03T23:59:42.316Z,5.10
